Pagrindinis puslapis
METAR-TAF:

METAR-TAF

Oro uostai :

Buochs, Šveicarija

platuma: 46-58-28N, ilguma: 8-23-49E, Aukštis: 449 m

Dabartinis oras

Ataskaita buvo paskelbta 14 minutes, ne 10:50 UTC
Vėjas 4 kt iš Rytų/Šiaurės Rytų, svyruoja nuo Šiaurės/Šiaurės Rytų ir Rytų/Pietryčių
Temperatūra 17°C
Drėgmė 72%
Slėgis 1020 hPa
Matomumas 10 km arba daugiau
nėra debesų žemiau 1500 m ir nėra kamuolinių lietaus debesų

METAR: LSZC 211050Z AUTO 07004KT 030V110 CAVOK 17/12 Q1020

Laikas: 13:04 (11:04 UTC)

Prognozė

Ataskaita buvo paskelbta 20 valandos ir 39 minutes, ne 14:25 UTC
Prognozė galioja nuo 20 metu 15 UTC su 20 metu 24 UTC
Vėjas 3 kt nuo kintamojo kryptimis
Matomumas 10 km arba daugiau
nėra debesų žemiau 1500 m ir nėra kamuolinių lietaus debesų

TAF: LSZC 201425Z 2015/2024 VRB03KT CAVOK

Orai ataskaitas ir orų prognozės (METAR, TAF).

turimą stotys yra geltonos ir raudonos taškus žemėlapyje.

Perkelti pele per norėdami pamatyti stoties vardą.

Tada spustelėkite, norėdami matyti oro stebėjimo ir prognozės.

Norėdami pakeisti žemėlapį: spustelėkite ant žalios mygtukų su juodo kryžiaus žemyn,; žalią mygtuką su brūkšneliu, jei norite nutolinti; arba žalių rodyklių gretimoms žemėlapius.


METAR-TAF: